Terminal Aerodrome Forecast
Issued by NWS

Home | Current Version | Previous Version | Graphics & Text | Print | Product List | Glossary On
Versions: 1 2 3 4 5 6 7 8 9 10 11 12 13 14 15
851
FTUS43 KICT 271131
TAFSLN
TAF
KSLN 271131Z 2712/2812 14009KT P6SM SCT015 BKN090
     FM271500 15013KT P6SM BKN020
     FM271800 16015G22KT P6SM VCTS BKN030CB=

USA.gov is the U.S. government's official web portal to all federal, state and local government web resources and services.